x

San Clemente Basin - 27nm Se Of San Clemente Is, Ca (46086) Wave Buoy

5:50am - Thu 29th Jan 2015 All times are PST. -8 hours from GMT.

  • Sig Wave height 4.3ft
  • Swell Direction
  • Peak Period 14s
  • Average Period 10s
  • Wind
    4mph, 7mph gusts
  • Sea Temp 62°f
  • Air Temp 63°f
  • Sea Pressure 1015.9mb
  • San Clemente Basin - 27nm Se Of San Clemente Is, Ca
  • San Clemente Basin - 27nm Se Of San Clemente Is, Ca

More Historic Weather Station data

Upgrade to MSW Pro to gain access to the past 30 days of data for over 8000 Wavebouys and Weather Stations around the globe.

Join Pro

Comparision Forecast

View Surf forecast
   
Thu 01/29 5:50am 4.5ft 14s 10s 4 7 mph 1015.9mb 62f 63f
4:50am 4.5ft 13s 10s 9 11 mph 1015.7mb 62f 62f
3:50am 4ft 14s 9s 7
mph
1016.1mb 62f 62f
2:50am 4.5ft 14s 9s 9 11 mph 1016.3mb 62f 62f
1:50am 4ft 12s 8s 11
mph
1016.6mb 62f 62f
12:50am 4ft 14s 9s 7
mph
1017.2mb 62f 63f
Wed 01/28 11:50pm 5ft 14s 10s 9 11 mph 1017.4mb 62f 63f
10:50pm 4.5ft 14s 9s 7
mph
1018.4mb 62f 63f
9:50pm 4ft 14s 9s 2 4 mph 1018.9mb 62f 63f
8:50pm 5ft 14s 10s 4 7 mph 1018.3mb 63f 63f
7:50pm 4.5ft 15s 9s 7 9 mph 1018.3mb 63f 63f
6:50pm 5ft 13s 10s 9 11 mph 1018.4mb 63f 62f
5:50pm 4.5ft 15s 10s 7 9 mph 1018.3mb 63f 63f
4:50pm 5.5ft 14s 11s 11 13 mph 1017.5mb 63f 63f
3:50pm 5ft 14s 10s 9 11 mph 1018mb 63f 62f
2:50pm 4.5ft 14s 10s 9 11 mph 1018mb 63f 63f
1:50pm 5ft 14s 10s 11
mph
1018mb 63f 63f
12:50pm 5ft 15s 10s 11 13 mph 1018.4mb 63f 62f
11:50am 4.5ft 13s 9s 9 11 mph 1019.3mb 63f 62f
10:50am 4.5ft 14s 9s 9 11 mph 1020mb 63f 62f
9:50am 5ft 14s 9s 7 9 mph 1020.6mb 63f 62f
8:50am 5ft 15s 9s 11 13 mph 1019.7mb 62f 62f
7:50am 5ft 15s 8s 11 13 mph 1020mb 62f 62f
6:50am 5.5ft 14s 9s 13 16 mph 1019.7mb 62f 62f
5:50am 5.5ft 15s 9s 13 16 mph 1019.4mb 62f 62f
4:50am 5ft 15s 8s 13 16 mph 1019.6mb 62f 62f
3:50am 5ft 13s 9s 13 16 mph 1019.9mb 62f 62f
2:50am 5.5ft 15s 10s 13 16 mph 1019.7mb 62f 62f
1:50am 5ft 14s 9s 11
mph
1020.6mb 62f 62f
12:50am 4.5ft 14s 9s 9
mph
1021.6mb 63f 62f
Tue 01/27 11:50pm 4.5ft 15s 9s 9
mph
1021.5mb 62f 62f
10:50pm 4.5ft 14s 8s 11 13 mph 1021mb 62f 62f
9:50pm 5ft 13s 10s 11 13 mph 1021.3mb 62f 62f
8:50pm 5ft 13s 10s 7 9 mph 1021.3mb 62f 62f
7:50pm 5ft 13s 10s 11
mph
1021.3mb 62f 62f
6:50pm 5ft 13s 10s 11 13 mph 1021.2mb 63f 63f
5:50pm 5ft 14s 10s 11 13 mph 1020.9mb 63f 63f
4:50pm 5ft 14s 11s 11 16 mph 1020.6mb 63f 63f
3:50pm 5ft 14s 12s 11 13 mph 1020.9mb 63f 63f
2:50pm 5ft 14s 12s 9 11 mph 1021.2mb 63f 62f
1:50pm 6ft 15s 12s 9 11 mph 1021.1mb 63f 62f
12:50pm 5ft 14s 12s 9
mph
1021.4mb 63f 62f
11:50am 5ft 13s 11s 7
mph
1021.7mb 63f 62f
10:50am 5.5ft 15s 12s 7 9 mph 1022.2mb 63f 62f
9:50am 5ft 15s 11s 9 11 mph 1022.2mb 62f 62f
8:50am 5ft 15s 12s 9 11 mph 1021.7mb 62f 62f
7:50am 5ft 14s 11s 9
mph
1021.6mb 62f 62f
6:50am 5ft 15s 11s 4
mph
1021.2mb 62f 62f
5:50am 5ft 15s 11s 7 9 mph 1020.5mb 62f 62f
4:50am 5.5ft 15s 11s 7 9 mph 1019.9mb 62f 61f
3:50am 5ft 15s 10s 7 9 mph 1019.4mb 62f 61f
2:50am 6ft 15s 11s 7 9 mph 1019.5mb 62f 61f
1:50am 6ft 15s 10s 7 9 mph 1019.4mb 62f 61f
12:50am 5.5ft 16s 9s 9 11 mph 1019.2mb 62f 62f
Mon 01/26 11:50pm 5.5ft 15s 9s 9 11 mph 1019.2mb 62f 62f
10:50pm 6ft 15s 9s 11
mph
1018.9mb 62f 62f
9:50pm 6ft 16s 9s 11 13 mph 1018.4mb 62f 62f
8:50pm 5ft 13s 9s 11 13 mph 1017.8mb 63f 62f
7:50pm 6ft 14s 9s 9 11 mph 1017.7mb 63f 63f
6:50pm 6ft 14s 9s 7
mph
1017.8mb 63f 63f
5:50pm 5ft 15s 11s 4 7 mph 1016.9mb 63f 63f
4:50pm 5.5ft 14s 11s 7 9 mph 1016.7mb 63f 63f
3:50pm 5ft 14s 10s 2 4 mph 1016.2mb 63f 64f
2:50pm 5ft 14s 10s 2 4 mph 1015.8mb 63f 63f
1:50pm 6ft 14s 10s 9 11 mph 1015.3mb 63f 64f
12:50pm 5ft 15s 9s 13
mph
1015.8mb 63f 64f
11:50am 5ft 15s 10s 16 18 mph 1015.8mb 63f 64f
10:50am 5ft 15s 12s 9 11 mph 1016mb 63f 64f
9:50am 4.5ft 15s 12s 9 11 mph 1016mb 63f 65f
8:50am 4.5ft 15s 12s 9
mph
1015.4mb 63f 65f
7:50am 4.5ft 16s 11s 7 9 mph 1015.2mb 63f 65f
6:50am 6ft 15s 12s 7 9 mph 1014.9mb 63f 64f
5:50am 5ft 15s 12s  -  2 mph 1014.3mb 63f 64f
4:50am 5.5ft 15s 12s 4 7 mph 1014.1mb 63f 64f
3:50am 5ft 15s 12s 4 7 mph 1014.3mb 63f 63f
2:50am 5ft 15s 12s 4
mph
1014.7mb 63f 63f
1:50am 4.5ft 15s 12s 7 9 mph 1014.9mb 63f 64f
12:50am 5ft 15s 12s 4
mph
1015.6mb 63f 64f
Sun 01/25 11:50pm 5.5ft 15s 12s 4 7 mph 1015.7mb 63f 65f
10:50pm 5.5ft 16s 12s 9
mph
1016.1mb 63f 65f
9:50pm 6ft 16s 13s 4 7 mph 1016.4mb 63f 64f
8:50pm 6ft 15s 12s 4 7 mph 1016.2mb 63f 64f
7:50pm 5.5ft 16s 12s 4 7 mph 1016.5mb 63f 64f
6:50pm 6ft 15s 12s 4
mph
1015.8mb 63f 65f
5:50pm 6ft 15s 12s 4
mph
1015.3mb 64f 65f
4:50pm 5ft 16s 11s 7 9 mph 1014.6mb 64f 65f
3:50pm 6ft 16s 12s 7 9 mph 1014.1mb 64f 65f
2:50pm 5ft 16s 12s 4 7 mph 1014.2mb 64f 66f